TAF Text Data
IDs:
Format:
Raw Decoded Include METAR

Data at: 1820 UTC 12 Dec 2018

KLRU 121815Z AUTO 13004KT 10SM CLR 13/06 A3005 RMK AO2 T01260061

KLRU 121725Z 1218/1318 27009KT P6SM SCT060 BKN250
  FM122100 27025G35KT P6SM SCT250
  FM130400 31028G38KT P6SM FEW250
  FM131500 34012KT P6SM FEW250